This is the latest recevied weather packets stored in our database for station/object MARKET. If no packets are shown the sender has not sent any weather packets the latest 10 day(s).
| Time | Temp. | Humidity | Pressure | Rain* | Wind** | Luminosity | Snow |
|---|---|---|---|---|---|---|---|
| 1777681627 | 10.56° C | 58% | 1012.9 hPa | - | - | - | - |
| 1777680427 | 11.67° C | 55% | 1013.1 hPa | - | - | - | - |
| 1777679227 | 12.22° C | 53% | 1013.1 hPa | - | - | - | - |
| 1777678026 | 11.67° C | 54% | 1013.2 hPa | - | - | - | - |
| 1777676826 | 11.67° C | 55% | 1013.3 hPa | - | - | - | - |
| 1777675627 | 11.67° C | 57% | 1013.3 hPa | - | - | - | - |
| 1777674427 | 12.22° C | 54% | 1013.5 hPa | - | - | - | - |
| 1777673226 | 12.78° C | 52% | 1013.5 hPa | - | - | - | - |
| 1777672026 | 12.78° C | 54% | 1013.7 hPa | - | - | - | - |
| 1777670826 | 12.78° C | 53% | 1013.8 hPa | - | - | - | - |
| 1777669626 | 13.89° C | 49% | 1013.8 hPa | - | - | - | - |
| 1777668426 | 14.44° C | 48% | 1013.8 hPa | - | - | - | - |
| 1777667226 | 14.44° C | 49% | 1013.9 hPa | - | - | - | - |
| 1777666026 | 13.89° C | 52% | 1014 hPa | - | - | - | - |
| 1777664825 | 15° C | 48% | 1014 hPa | - | - | - | - |
| 1777663626 | 14.44° C | 49% | 1014.1 hPa | - | - | - | - |
| 1777661226 | 9.44° C | 70% | 1013.9 hPa | - | - | - | - |
| 1777660025 | 9.44° C | 72% | 1013.8 hPa | - | - | - | - |
| 1777656425 | 8.89° C | 75% | 1014.1 hPa | - | - | - | - |
| 1777655225 | 8.33° C | 79% | 1014.3 hPa | - | - | - | - |
| 1777654025 | 7.78° C | 82% | 1014.8 hPa | - | - | - | - |
| 1777652824 | 7.78° C | 81% | 1014.8 hPa | - | - | - | - |
| 1777651625 | 8.33° C | 78% | 1015 hPa | - | - | - | - |
| 1777650425 | 8.33° C | 78% | 1015.3 hPa | - | - | - | - |
| 1777649225 | 7.78° C | 81% | 1015.5 hPa | - | - | - | - |
* Rain since midnight (hover to see other rain measurements)
** Current wind speed in m/s (hover to see current wind gust speed)